createdAt,value
2019-05-17T00:00:57.395Z,26.10
2019-05-17T00:03:27.135Z,24.27
2019-05-17T00:05:57.031Z,26.30
2019-05-17T00:08:33.867Z,25.70
2019-05-17T00:10:59.756Z,24.37
2019-05-17T00:13:29.407Z,28.00
2019-05-17T00:15:58.986Z,24.77
2019-05-17T00:18:28.612Z,25.40
2019-05-17T00:21:00.780Z,26.43
2019-05-17T00:23:30.451Z,26.17
2019-05-17T00:26:00.075Z,25.53
2019-05-17T00:28:29.821Z,27.40
2019-05-17T00:30:59.558Z,25.80
2019-05-17T00:33:29.140Z,24.90
2019-05-17T00:35:58.842Z,26.90
2019-05-17T00:38:28.484Z,27.63
2019-05-17T00:40:58.003Z,26.97
2019-05-17T00:43:27.804Z,27.60
2019-05-17T00:45:57.566Z,27.43
2019-05-17T00:48:27.343Z,26.73
2019-05-17T00:51:01.864Z,27.07
2019-05-17T00:53:28.387Z,27.50
2019-05-17T00:55:58.117Z,27.20
2019-05-17T00:58:27.728Z,26.10
2019-05-17T01:00:57.383Z,29.00
2019-05-17T01:03:27.077Z,28.93
2019-05-17T01:05:56.838Z,27.97
2019-05-17T01:08:26.677Z,31.07
2019-05-17T01:10:56.721Z,29.40
2019-05-17T01:13:26.687Z,29.17
2019-05-17T01:15:56.763Z,28.93
2019-05-17T01:18:27.876Z,29.27
2019-05-17T01:20:57.522Z,29.47
2019-05-17T01:23:27.246Z,27.80
2019-05-17T01:25:56.874Z,30.37
2019-05-17T01:28:27.919Z,29.23
2019-05-17T01:30:57.539Z,27.77
2019-05-17T01:33:29.136Z,28.33
2019-05-17T01:35:58.711Z,29.97
2019-05-17T01:38:28.656Z,30.27
2019-05-17T01:40:58.233Z,29.20
2019-05-17T01:43:27.897Z,30.80
2019-05-17T01:45:57.558Z,29.70
2019-05-17T01:48:27.602Z,31.50
2019-05-17T01:50:57.505Z,31.13
2019-05-17T01:53:27.470Z,29.57
2019-05-17T01:55:56.990Z,28.67
2019-05-17T01:58:28.636Z,30.70
2019-05-17T02:00:59.315Z,29.67
2019-05-17T02:03:29.071Z,31.10
2019-05-17T02:05:58.870Z,28.27
2019-05-17T02:08:28.649Z,30.17
2019-05-17T02:10:58.311Z,28.53
2019-05-17T02:13:28.155Z,27.37
2019-05-17T02:15:57.779Z,30.80
2019-05-17T02:18:27.396Z,30.87
2019-05-17T02:20:57.172Z,30.33
2019-05-17T02:23:27.156Z,32.33
2019-05-17T02:25:57.262Z,32.13
2019-05-17T02:28:26.923Z,30.47
2019-05-17T02:31:03.509Z,32.50
2019-05-17T02:33:33.838Z,31.63
2019-05-17T02:36:03.448Z,31.47
2019-05-17T02:38:33.565Z,32.80
2019-05-17T02:41:03.740Z,32.97
2019-05-17T02:43:33.890Z,32.80
2019-05-17T02:46:04.081Z,32.53
2019-05-17T02:48:34.402Z,33.80
2019-05-17T02:51:04.291Z,31.67
2019-05-17T02:53:34.057Z,32.90
2019-05-17T02:56:03.818Z,30.57
2019-05-17T02:58:33.494Z,30.97
2019-05-17T03:01:06.428Z,32.37
2019-05-17T03:03:36.127Z,32.50
2019-05-17T03:06:05.807Z,31.93
2019-05-17T03:08:35.488Z,31.67
2019-05-17T03:11:05.360Z,33.17
2019-05-17T03:13:34.900Z,32.67
2019-05-17T03:16:06.017Z,31.87
2019-05-17T03:18:35.666Z,34.23
2019-05-17T03:21:05.267Z,32.23
2019-05-17T03:23:34.891Z,32.07
2019-05-17T03:26:04.640Z,32.63
2019-05-17T03:28:34.429Z,32.70
2019-05-17T03:31:08.519Z,33.27
2019-05-17T03:33:38.155Z,32.97
2019-05-17T03:36:07.961Z,32.30
2019-05-17T03:38:37.695Z,32.43
2019-05-17T03:41:18.580Z,33.93
2019-05-17T03:43:41.298Z,32.30
2019-05-17T03:46:13.630Z,33.23
2019-05-17T03:48:43.657Z,33.63
2019-05-17T03:51:13.397Z,32.47
2019-05-17T03:53:44.117Z,33.60
2019-05-17T03:56:15.166Z,32.37
2019-05-17T03:58:44.932Z,34.13
2019-05-17T04:01:16.020Z,31.70
2019-05-17T04:03:45.628Z,31.83
2019-05-17T04:06:15.258Z,32.47
2019-05-17T04:08:45.107Z,30.47
2019-05-17T04:11:26.632Z,28.80
2019-05-17T04:13:46.094Z,30.47
2019-05-17T04:16:15.808Z,32.20
2019-05-17T04:18:45.355Z,32.30
2019-05-17T04:21:14.997Z,31.07
2019-05-17T04:23:44.587Z,31.30
2019-05-17T04:26:14.342Z,31.27
2019-05-17T04:28:44.308Z,29.70
2019-05-17T04:31:14.006Z,32.97
2019-05-17T04:33:43.743Z,31.53
2019-05-17T04:36:13.504Z,29.90
2019-05-17T04:38:43.679Z,33.47
2019-05-17T04:41:13.568Z,30.00
2019-05-17T04:43:43.229Z,30.33
2019-05-17T04:46:13.186Z,29.10
2019-05-17T04:48:44.132Z,29.03
2019-05-17T04:51:13.839Z,31.67
2019-05-17T04:53:43.379Z,30.63
2019-05-17T04:56:14.079Z,29.07
2019-05-17T04:58:44.103Z,29.30
2019-05-17T05:01:13.941Z,29.23
2019-05-17T05:03:43.642Z,30.03
2019-05-17T05:06:13.626Z,30.33
2019-05-17T05:08:43.271Z,28.43
2019-05-17T05:11:13.034Z,29.33
2019-05-17T05:13:42.819Z,28.97
2019-05-17T05:16:13.469Z,27.80
2019-05-17T05:18:43.564Z,29.53
2019-05-17T05:21:13.388Z,30.60
2019-05-17T05:23:44.228Z,27.73
2019-05-17T05:26:15.577Z,27.87
2019-05-17T05:28:45.387Z,28.60
2019-05-17T05:31:16.216Z,30.80
2019-05-17T05:33:45.815Z,29.03
2019-05-17T05:36:15.415Z,28.17
2019-05-17T05:38:46.091Z,27.67
2019-05-17T05:41:15.755Z,26.60
2019-05-17T05:43:45.773Z,27.20
2019-05-17T05:46:15.501Z,26.30
2019-05-17T05:48:45.371Z,26.70
2019-05-17T05:51:16.031Z,27.63
2019-05-17T05:53:47.650Z,25.63
2019-05-17T05:56:17.276Z,26.83
2019-05-17T05:58:52.101Z,27.10
2019-05-17T06:01:22.063Z,26.37
2019-05-17T06:03:52.366Z,24.13
2019-05-17T06:06:22.074Z,26.87
2019-05-17T06:08:52.200Z,25.00
2019-05-17T06:11:23.596Z,26.23
2019-05-17T06:13:53.154Z,25.27
2019-05-17T06:16:22.912Z,24.37
2019-05-17T06:18:53.847Z,24.77
2019-05-17T06:21:23.518Z,22.90
2019-05-17T06:23:53.167Z,25.80
2019-05-17T06:26:23.733Z,24.13
2019-05-17T06:28:54.631Z,26.63
2019-05-17T06:31:24.270Z,22.70
2019-05-17T06:33:53.880Z,22.67
2019-05-17T06:36:23.664Z,23.67
2019-05-17T06:38:53.340Z,23.03
2019-05-17T06:41:22.940Z,22.17
2019-05-17T06:43:52.704Z,21.77
2019-05-17T06:46:22.305Z,24.10
2019-05-17T06:48:52.989Z,22.83
2019-05-17T06:51:22.922Z,22.40
2019-05-17T06:53:52.573Z,23.63
2019-05-17T06:56:22.958Z,22.80
2019-05-17T06:58:52.691Z,23.63
2019-05-17T07:01:22.668Z,23.37
2019-05-17T07:03:52.525Z,22.37
2019-05-17T07:06:23.724Z,22.67
2019-05-17T07:08:53.299Z,21.00
2019-05-17T07:11:23.163Z,20.90
2019-05-17T07:13:52.801Z,20.77
2019-05-17T07:16:22.367Z,19.07
2019-05-17T07:18:52.178Z,19.87
2019-05-17T07:21:21.994Z,19.00
2019-05-17T07:23:51.644Z,19.57
2019-05-17T07:26:21.520Z,18.50
2019-05-17T07:28:51.199Z,17.50
2019-05-17T07:31:23.592Z,17.50
2019-05-17T07:33:53.267Z,17.10
2019-05-17T07:36:22.901Z,16.27
2019-05-17T07:38:52.565Z,16.20
2019-05-17T07:41:22.161Z,15.37
2019-05-17T07:43:51.910Z,16.13
2019-05-17T07:46:21.540Z,15.00
2019-05-17T07:48:51.471Z,14.27
2019-05-17T07:51:21.139Z,14.20
2019-05-17T07:53:50.922Z,14.13
2019-05-17T07:56:20.706Z,14.13
2019-05-17T07:58:50.390Z,14.20
2019-05-17T08:01:20.537Z,13.57
2019-05-17T08:03:50.354Z,13.13
2019-05-17T08:06:20.059Z,12.90
2019-05-17T08:08:50.287Z,13.83
2019-05-17T08:11:20.048Z,12.40
2019-05-17T08:13:50.531Z,13.20
2019-05-17T08:16:20.193Z,12.20
2019-05-17T08:18:49.861Z,13.40
2019-05-17T08:21:20.431Z,12.07
2019-05-17T08:23:50.616Z,11.90
2019-05-17T08:26:20.492Z,12.80
2019-05-17T08:28:50.415Z,12.07
2019-05-17T08:31:20.364Z,12.30
2019-05-17T08:33:50.004Z,11.87
2019-05-17T08:36:20.214Z,10.70
2019-05-17T08:38:50.227Z,9.93
2019-05-17T08:41:20.798Z,11.37
2019-05-17T08:43:51.408Z,12.10
2019-05-17T08:46:23.842Z,11.23
2019-05-17T08:48:53.671Z,10.07
2019-05-17T08:51:23.336Z,9.90
2019-05-17T08:53:52.935Z,10.10
2019-05-17T08:56:22.757Z,10.33
2019-05-17T08:58:52.356Z,12.60
2019-05-17T09:01:21.971Z,11.83
2019-05-17T09:03:51.842Z,12.10
2019-05-17T09:06:21.556Z,13.50
2019-05-17T09:08:51.196Z,12.50
2019-05-17T09:11:21.005Z,13.93
2019-05-17T09:13:57.962Z,12.50
2019-05-17T09:16:22.172Z,12.57
2019-05-17T09:18:51.783Z,12.17
2019-05-17T09:21:22.119Z,13.40
2019-05-17T09:23:51.883Z,11.97
2019-05-17T09:26:21.611Z,12.83
2019-05-17T09:28:51.635Z,12.37
2019-05-17T09:31:21.393Z,12.17
2019-05-17T09:33:51.096Z,10.33
2019-05-17T09:36:20.679Z,10.00
2019-05-17T09:38:50.541Z,9.87
2019-05-17T09:41:20.259Z,9.30
2019-05-17T09:43:50.192Z,9.50
2019-05-17T09:46:19.969Z,9.90
2019-05-17T09:48:50.490Z,9.30
2019-05-17T09:51:20.522Z,8.67
2019-05-17T09:53:50.101Z,8.10
2019-05-17T09:56:20.591Z,8.00
2019-05-17T09:58:50.559Z,8.83
2019-05-17T10:01:20.474Z,8.80
2019-05-17T10:03:50.700Z,9.17
2019-05-17T10:06:20.456Z,8.73
2019-05-17T10:08:50.420Z,8.67
2019-05-17T10:11:20.417Z,8.60
2019-05-17T10:13:50.156Z,7.90
2019-05-17T10:16:20.258Z,8.33
2019-05-17T10:18:50.242Z,7.20
2019-05-17T10:21:20.008Z,7.77
2019-05-17T10:23:49.938Z,7.17
2019-05-17T10:26:19.933Z,5.47
2019-05-17T10:28:51.676Z,6.10
2019-05-17T10:31:20.787Z,6.20
2019-05-17T10:33:50.532Z,7.97
2019-05-17T10:36:20.611Z,7.08
2019-05-17T10:38:50.379Z,7.57
2019-05-17T10:41:20.144Z,7.70
2019-05-17T10:43:50.199Z,7.57
2019-05-17T10:46:20.520Z,7.67
2019-05-17T10:48:50.680Z,6.93
2019-05-17T10:51:20.819Z,7.00
2019-05-17T10:53:51.302Z,6.57
2019-05-17T10:56:23.525Z,5.50
2019-05-17T10:58:52.663Z,6.80
2019-05-17T11:01:22.527Z,6.60
2019-05-17T11:03:52.230Z,5.70
2019-05-17T11:06:22.008Z,6.83
2019-05-17T11:08:51.666Z,6.60
2019-05-17T11:11:21.516Z,7.30
2019-05-17T11:13:53.010Z,7.13
2019-05-17T11:16:22.523Z,8.70
2019-05-17T11:18:52.155Z,8.67
2019-05-17T11:21:22.057Z,9.00
2019-05-17T11:23:51.799Z,7.83
2019-05-17T11:26:21.665Z,7.73
2019-05-17T11:28:52.815Z,8.57
2019-05-17T11:31:22.421Z,9.40
2019-05-17T11:33:52.055Z,8.53
2019-05-17T11:36:21.806Z,8.43
2019-05-17T11:38:51.611Z,8.10
2019-05-17T11:41:22.046Z,8.20
2019-05-17T11:43:51.734Z,7.27
2019-05-17T11:46:35.333Z,7.00
2019-05-17T11:48:53.200Z,7.33
2019-05-17T11:51:22.982Z,6.57
2019-05-17T11:53:52.761Z,6.70
2019-05-17T11:56:22.467Z,8.20
2019-05-17T11:58:52.256Z,7.67
2019-05-17T12:01:21.805Z,6.20
2019-05-17T12:03:51.572Z,7.30
2019-05-17T12:06:21.336Z,7.70
2019-05-17T12:08:50.899Z,9.77
2019-05-17T12:11:20.686Z,7.47
2019-05-17T12:13:50.377Z,7.30
2019-05-17T12:16:20.083Z,7.23
2019-05-17T12:18:49.832Z,6.17
2019-05-17T12:21:19.718Z,6.10
2019-05-17T12:23:49.314Z,6.93
2019-05-17T12:26:18.899Z,6.83
2019-05-17T12:28:49.585Z,6.10
2019-05-17T12:31:19.237Z,6.40
2019-05-17T12:33:48.977Z,6.90
2019-05-17T12:36:18.729Z,6.00
2019-05-17T12:38:48.367Z,6.27
2019-05-17T12:41:18.100Z,6.30
2019-05-17T12:43:48.827Z,5.83
2019-05-17T12:46:18.516Z,6.67
2019-05-17T12:48:48.260Z,5.60
2019-05-17T12:51:17.983Z,5.33
2019-05-17T12:53:47.679Z,5.13
2019-05-17T12:56:17.333Z,7.13
2019-05-17T12:58:47.071Z,5.50
2019-05-17T13:01:16.624Z,5.00
2019-05-17T13:03:46.356Z,5.57
2019-05-17T13:06:15.996Z,5.63
2019-05-17T13:08:46.045Z,4.90
2019-05-17T13:11:15.747Z,5.20
2019-05-17T13:13:45.448Z,4.90
2019-05-17T13:16:18.731Z,4.63
2019-05-17T13:18:46.806Z,4.97
2019-05-17T13:21:16.340Z,5.20
2019-05-17T13:23:46.006Z,5.00
2019-05-17T13:26:15.590Z,5.37
2019-05-17T13:28:45.503Z,4.80
2019-05-17T13:31:15.214Z,4.33
2019-05-17T13:33:44.876Z,5.03
2019-05-17T13:36:14.561Z,5.20
2019-05-17T13:38:44.320Z,4.30
2019-05-17T13:41:14.007Z,4.87
2019-05-17T13:43:43.720Z,3.90
2019-05-17T13:46:13.435Z,4.93
2019-05-17T13:48:43.070Z,4.87
2019-05-17T13:51:12.896Z,3.93
2019-05-17T13:53:42.627Z,4.70
2019-05-17T13:56:12.299Z,4.03
2019-05-17T13:58:42.090Z,4.07
2019-05-17T14:01:11.771Z,4.10
2019-05-17T14:03:41.716Z,4.50
2019-05-17T14:06:11.389Z,4.23
2019-05-17T14:08:40.944Z,3.90
2019-05-17T14:11:10.807Z,4.30
2019-05-17T14:13:40.451Z,4.47
2019-05-17T14:16:10.109Z,3.87
2019-05-17T14:18:39.718Z,4.97
2019-05-17T14:21:09.646Z,4.03
2019-05-17T14:23:39.189Z,4.10
2019-05-17T14:26:08.840Z,3.47
2019-05-17T14:28:38.599Z,3.57
2019-05-17T14:31:08.149Z,3.80
2019-05-17T14:33:37.764Z,3.27
2019-05-17T14:36:07.403Z,3.07
2019-05-17T14:38:37.004Z,4.13
2019-05-17T14:41:08.568Z,3.53
2019-05-17T14:43:37.821Z,3.60
2019-05-17T14:46:07.482Z,3.53
2019-05-17T14:48:37.139Z,3.17
2019-05-17T14:51:06.739Z,3.60
2019-05-17T14:53:36.470Z,2.80
2019-05-17T14:56:06.046Z,3.57
2019-05-17T14:58:36.147Z,3.33
2019-05-17T15:01:05.751Z,3.10
2019-05-17T15:03:35.403Z,3.43
2019-05-17T15:06:05.009Z,3.07
2019-05-17T15:08:34.827Z,2.60
2019-05-17T15:11:04.423Z,2.83
2019-05-17T15:13:35.986Z,3.30
2019-05-17T15:16:05.750Z,3.50
2019-05-17T15:18:35.410Z,3.10
2019-05-17T15:21:05.075Z,3.00
2019-05-17T15:23:34.715Z,2.87
2019-05-17T15:26:04.532Z,2.57
2019-05-17T15:28:34.173Z,2.70
2019-05-17T15:31:03.743Z,2.60
2019-05-17T15:33:33.417Z,2.57
2019-05-17T15:36:03.169Z,3.13
2019-05-17T15:38:32.712Z,2.37
2019-05-17T15:41:02.311Z,2.80
2019-05-17T15:43:31.852Z,2.73
2019-05-17T15:46:01.712Z,2.73
2019-05-17T15:48:31.275Z,2.67
2019-05-17T15:51:01.081Z,2.77
2019-05-17T15:53:30.818Z,2.30
2019-05-17T15:56:00.543Z,2.37
2019-05-17T15:58:30.152Z,2.40
2019-05-17T16:00:59.886Z,2.60
2019-05-17T16:03:29.571Z,2.90
2019-05-17T16:05:59.149Z,2.40
2019-05-17T16:08:29.776Z,2.20
2019-05-17T16:10:59.662Z,1.97
2019-05-17T16:13:29.254Z,2.53
2019-05-17T16:15:58.869Z,2.87
2019-05-17T16:18:28.589Z,1.93
2019-05-17T16:20:58.262Z,2.67
2019-05-17T16:23:28.032Z,2.50
2019-05-17T16:25:57.679Z,1.97
2019-05-17T16:28:27.527Z,2.73
2019-05-17T16:30:57.093Z,3.07
2019-05-17T16:33:26.737Z,2.20
2019-05-17T16:35:56.343Z,2.10
2019-05-17T16:38:25.979Z,2.00
2019-05-17T16:40:55.614Z,2.50
2019-05-17T16:43:25.281Z,2.40
2019-05-17T16:45:54.944Z,2.17
2019-05-17T16:48:24.901Z,2.70
2019-05-17T16:50:54.680Z,2.00
2019-05-17T16:53:24.419Z,2.10
2019-05-17T16:55:53.964Z,2.80
2019-05-17T16:58:23.591Z,2.60
2019-05-17T17:00:53.618Z,2.43
2019-05-17T17:03:23.214Z,2.50
2019-05-17T17:05:53.016Z,2.80
2019-05-17T17:08:22.678Z,2.60
2019-05-17T17:10:52.215Z,2.33
2019-05-17T17:13:32.872Z,2.70
2019-05-17T17:15:53.668Z,3.00
2019-05-17T17:18:23.274Z,2.67
2019-05-17T17:20:52.928Z,2.63
2019-05-17T17:23:22.471Z,2.47
2019-05-17T17:25:52.271Z,2.30
2019-05-17T17:28:25.237Z,2.57
2019-05-17T17:30:53.293Z,2.27
2019-05-17T17:33:23.024Z,2.67
2019-05-17T17:35:52.628Z,2.73
2019-05-17T17:38:22.239Z,2.23
2019-05-17T17:40:51.945Z,2.40
2019-05-17T17:43:21.524Z,2.30
2019-05-17T17:45:51.115Z,2.07
2019-05-17T17:48:20.797Z,2.40
2019-05-17T17:50:50.538Z,2.60
2019-05-17T17:53:20.168Z,2.70
2019-05-17T17:55:49.694Z,2.53
2019-05-17T17:58:19.509Z,2.80
2019-05-17T18:00:49.164Z,2.50
2019-05-17T18:03:18.788Z,2.73
2019-05-17T18:05:48.379Z,2.87
2019-05-17T18:08:18.093Z,2.50
2019-05-17T18:10:47.773Z,2.40
2019-05-17T18:13:17.620Z,2.57
2019-05-17T18:15:50.245Z,2.37
2019-05-17T18:18:18.714Z,2.53
2019-05-17T18:20:48.279Z,2.57
2019-05-17T18:23:22.527Z,2.70
2019-05-17T18:25:49.242Z,2.77
2019-05-17T18:28:18.835Z,2.50
2019-05-17T18:30:48.431Z,2.47
2019-05-17T18:33:18.095Z,2.50
2019-05-17T18:35:47.948Z,2.60
2019-05-17T18:38:19.985Z,2.80
2019-05-17T18:40:49.668Z,3.17
2019-05-17T18:43:19.481Z,2.60
2019-05-17T18:45:49.307Z,3.23
2019-05-17T18:48:19.112Z,3.10
2019-05-17T18:50:48.847Z,3.17
2019-05-17T18:53:18.622Z,2.73
2019-05-17T18:55:48.260Z,3.10
2019-05-17T18:58:18.058Z,2.90
2019-05-17T19:00:48.188Z,2.87
2019-05-17T19:03:17.704Z,3.30
2019-05-17T19:05:47.415Z,3.33
2019-05-17T19:08:17.217Z,3.30
2019-05-17T19:10:46.867Z,2.90
2019-05-17T19:13:16.639Z,3.40
2019-05-17T19:15:46.458Z,2.93
2019-05-17T19:18:16.043Z,3.07
2019-05-17T19:20:45.776Z,3.47
2019-05-17T19:23:15.431Z,3.23
2019-05-17T19:25:45.219Z,3.43
2019-05-17T19:28:14.886Z,3.00
2019-05-17T19:30:45.219Z,3.37
2019-05-17T19:33:15.087Z,3.77
2019-05-17T19:35:44.812Z,3.50
2019-05-17T19:38:14.439Z,3.50
2019-05-17T19:40:44.298Z,3.80
2019-05-17T19:43:13.992Z,3.40
2019-05-17T19:45:43.894Z,3.30
2019-05-17T19:48:14.258Z,3.33
2019-05-17T19:50:44.162Z,3.90
2019-05-17T19:53:14.031Z,3.27
2019-05-17T19:55:43.911Z,3.70
2019-05-17T19:58:13.858Z,3.50
2019-05-17T20:00:43.581Z,3.47
2019-05-17T20:03:13.195Z,3.93
2019-05-17T20:05:42.864Z,3.90
2019-05-17T20:08:12.612Z,3.90
2019-05-17T20:10:42.222Z,3.80
2019-05-17T20:13:11.835Z,3.70
2019-05-17T20:15:41.460Z,3.70
2019-05-17T20:18:11.495Z,3.73
2019-05-17T20:20:41.055Z,3.87
2019-05-17T20:23:10.687Z,3.67
2019-05-17T20:25:40.267Z,3.90
2019-05-17T20:28:10.184Z,4.10
2019-05-17T20:30:39.902Z,3.90
2019-05-17T20:33:09.572Z,3.70
2019-05-17T20:35:39.145Z,3.73
2019-05-17T20:38:08.929Z,4.07
2019-05-17T20:40:38.540Z,4.43
2019-05-17T20:43:09.139Z,4.07
2019-05-17T20:45:38.765Z,4.07
2019-05-17T20:48:08.619Z,4.50
2019-05-17T20:50:38.324Z,4.33
2019-05-17T20:53:18.355Z,4.63
2019-05-17T20:55:39.347Z,4.30
2019-05-17T20:58:09.124Z,4.20
2019-05-17T21:00:38.707Z,4.90
2019-05-17T21:03:08.628Z,4.63
2019-05-17T21:05:38.600Z,5.47
2019-05-17T21:08:08.311Z,4.90
2019-05-17T21:10:37.924Z,4.83
2019-05-17T21:13:07.657Z,4.93
2019-05-17T21:15:47.521Z,4.37
2019-05-17T21:18:08.463Z,4.90
2019-05-17T21:20:38.239Z,4.93
2019-05-17T21:23:07.739Z,4.73
2019-05-17T21:25:37.335Z,4.47
2019-05-17T21:28:07.013Z,4.67
2019-05-17T21:30:36.694Z,5.23
2019-05-17T21:33:06.292Z,5.40
2019-05-17T21:35:36.252Z,5.90
2019-05-17T21:38:06.762Z,4.80
2019-05-17T21:40:36.496Z,4.73
2019-05-17T21:43:06.244Z,4.93
2019-05-17T21:45:35.906Z,5.90
2019-05-17T21:48:05.680Z,5.83
2019-05-17T21:50:35.403Z,6.80
2019-05-17T21:53:05.095Z,5.73
2019-05-17T21:55:34.756Z,6.37
2019-05-17T21:58:04.402Z,6.10
2019-05-17T22:01:23.108Z,5.73
2019-05-17T22:03:52.889Z,6.00
2019-05-17T22:06:22.802Z,4.70
2019-05-17T22:08:52.588Z,5.03
2019-05-17T22:11:22.143Z,5.10
2019-05-17T22:13:52.012Z,5.63
2019-05-17T22:16:21.618Z,5.97
2019-05-17T22:18:51.284Z,6.80
2019-05-17T22:21:21.049Z,6.57
2019-05-17T22:23:50.646Z,6.80
2019-05-17T22:26:20.255Z,6.17
2019-05-17T22:28:50.015Z,6.07
2019-05-17T22:31:19.591Z,6.53
2019-05-17T22:33:49.275Z,7.07
2019-05-17T22:36:18.903Z,6.50
2019-05-17T22:38:48.569Z,6.80
2019-05-17T22:41:18.327Z,7.27
2019-05-17T22:43:48.127Z,6.37
2019-05-17T22:46:17.800Z,6.67
2019-05-17T22:48:47.463Z,6.80
2019-05-17T22:51:17.172Z,5.60
2019-05-17T22:53:46.951Z,6.20
2019-05-17T22:56:16.533Z,7.07
2019-05-17T22:58:46.523Z,6.57
2019-05-17T23:01:16.334Z,6.80
2019-05-17T23:03:46.000Z,6.37
2019-05-17T23:06:15.548Z,6.23
2019-05-17T23:08:45.268Z,6.40
2019-05-17T23:11:15.202Z,6.17
2019-05-17T23:13:45.102Z,6.77
2019-05-17T23:16:14.651Z,5.70
2019-05-17T23:19:03.372Z,5.70
2019-05-17T23:21:33.094Z,6.33
2019-05-17T23:24:02.747Z,6.40
2019-05-17T23:26:32.594Z,6.70
2019-05-17T23:29:02.715Z,6.63
2019-05-17T23:31:32.368Z,7.47
2019-05-17T23:34:02.207Z,7.53
2019-05-17T23:36:31.847Z,6.80
2019-05-17T23:39:01.696Z,6.90
2019-05-17T23:41:31.249Z,7.30
2019-05-17T23:44:00.845Z,6.90
2019-05-17T23:46:30.632Z,7.50
2019-05-17T23:49:00.187Z,7.80
2019-05-17T23:51:29.941Z,6.57
2019-05-17T23:53:59.626Z,7.50
2019-05-17T23:56:29.269Z,7.70
2019-05-17T23:58:58.797Z,6.80
